Time;durP1;ratioP1;P1;durP2;ratioP2;P2;SDS_P1;SDS_P2;PMS_P1;PMS_P2;Temp;Humidity;BMP_temperature;BMP_pressure;BME280_temperature;BME280_humidity;BME280_pressure;Samples;Min_cycle;Max_cycle;Signal;HPM_P1;HPM_P2
2023/07/27 00:00:16;;;;;;;5.18;3.85;;;13.10;99.90;;;;;;5092380;28;20029;-47
2023/07/27 00:02:41;;;;;;;10.13;4.45;;;13.10;99.90;;;;;;5092001;28;20028;-46
2023/07/27 00:05:07;;;;;;;6.03;4.10;;;13.00;99.90;;;;;;5073794;28;20536;-47
2023/07/27 00:07:33;;;;;;;6.80;3.85;;;13.00;99.90;;;;;;5092068;28;20024;-48
2023/07/27 00:09:58;;;;;;;5.47;3.63;;;13.00;99.90;;;;;;5092062;28;20020;-47
2023/07/27 00:12:24;;;;;;;6.88;3.80;;;13.00;99.90;;;;;;5092055;28;20500;-46
2023/07/27 00:14:50;;;;;;;6.80;4.13;;;13.00;99.90;;;;;;5091749;28;20024;-47
2023/07/27 00:17:16;;;;;;;5.05;3.50;;;13.00;99.90;;;;;;5073818;28;20028;-49
2023/07/27 00:19:41;;;;;;;5.35;3.40;;;12.90;99.90;;;;;;5091930;28;20065;-46
2023/07/27 00:22:07;;;;;;;5.82;3.40;;;12.90;99.90;;;;;;5073452;28;20012;-47
2023/07/27 00:24:34;;;;;;;8.15;3.83;;;12.90;99.90;;;;;;5091549;28;20020;-46
2023/07/27 00:26:59;;;;;;;7.82;3.50;;;12.90;99.90;;;;;;5091944;28;20112;-47
2023/07/27 00:29:25;;;;;;;4.35;3.40;;;12.90;99.90;;;;;;5073441;28;20062;-48
2023/07/27 00:31:51;;;;;;;4.82;3.30;;;12.90;99.90;;;;;;5091634;28;20029;-46
2023/07/27 00:34:17;;;;;;;4.35;3.25;;;12.90;99.90;;;;;;5091175;28;20034;-45
2023/07/27 00:36:43;;;;;;;7.20;3.63;;;12.90;99.90;;;;;;5091600;28;20028;-46
2023/07/27 00:39:09;;;;;;;5.57;3.58;;;12.90;99.90;;;;;;5073424;28;20081;-46
2023/07/27 00:41:34;;;;;;;10.00;4.05;;;12.90;99.90;;;;;;5091796;28;20027;-46
2023/07/27 00:44:00;;;;;;;8.82;3.95;;;12.90;99.90;;;;;;5091087;28;20020;-46
2023/07/27 00:46:26;;;;;;;8.63;4.55;;;12.90;99.90;;;;;;5091382;28;20070;-45
2023/07/27 00:48:51;;;;;;;3.58;3.17;;;12.90;99.90;;;;;;5091410;28;20031;-47
2023/07/27 00:51:17;;;;;;;5.40;3.60;;;13.00;99.90;;;;;;5091466;28;20367;-47
2023/07/27 00:53:43;;;;;;;6.32;4.07;;;12.90;99.90;;;;;;5090669;28;20058;-47
2023/07/27 00:56:09;;;;;;;5.32;3.97;;;13.00;99.90;;;;;;5091498;28;20020;-47
2023/07/27 00:58:36;;;;;;;6.55;4.25;;;13.00;99.90;;;;;;5090804;28;20434;-47
2023/07/27 01:01:03;;;;;;;7.35;3.85;;;13.00;99.90;;;;;;5091129;28;20427;-46
2023/07/27 01:03:28;;;;;;;5.25;3.65;;;12.90;99.90;;;;;;5072473;28;20461;-47
2023/07/27 01:05:54;;;;;;;7.93;4.35;;;12.90;99.90;;;;;;5091146;28;20058;-46
2023/07/27 01:08:20;;;;;;;5.13;4.00;;;12.90;99.90;;;;;;5090892;28;20203;-49
2023/07/27 01:11:05;;;;;;;6.68;3.95;;;12.90;99.90;;;;;;5090866;28;20032;-49
2023/07/27 01:13:39;;;;;;;8.57;3.80;;;12.90;99.90;;;;;;5090441;28;20038;-46
2023/07/27 01:16:14;;;;;;;5.03;4.30;;;12.90;99.90;;;;;;5090937;28;20472;-46
2023/07/27 01:18:48;;;;;;;9.45;3.78;;;12.80;99.90;;;;;;5072661;28;20439;-48
2023/07/27 01:21:19;;;;;;;6.43;4.47;;;12.80;99.90;;;;;;5091057;28;20044;-47
2023/07/27 01:24:03;;;;;;;8.82;4.40;;;12.80;99.90;;;;;;5090359;28;20097;-46
2023/07/27 01:26:55;;;;;;;7.47;4.03;;;12.70;99.90;;;;;;5090707;28;20030;-47
2023/07/27 01:29:49;;;;;;;4.97;4.25;;;12.70;99.90;;;;;;5068191;28;20123;-48
2023/07/27 01:32:16;;;;;;;5.97;4.20;;;12.80;99.90;;;;;;5090284;28;20407;-46
2023/07/27 01:34:45;;;;;;;4.68;3.50;;;12.70;99.90;;;;;;5071672;28;20416;-46
2023/07/27 01:37:15;;;;;;;7.13;4.30;;;12.70;99.90;;;;;;5090150;28;20055;-47
2023/07/27 01:39:45;;;;;;;9.20;4.70;;;12.80;99.90;;;;;;5090380;28;20028;-46
2023/07/27 01:42:13;;;;;;;5.05;4.13;;;12.80;99.90;;;;;;5090005;28;20028;-46
2023/07/27 01:44:39;;;;;;;8.30;4.85;;;12.80;99.90;;;;;;5089671;28;20012;-46
2023/07/27 01:47:07;;;;;;;5.63;4.05;;;12.80;99.90;;;;;;5090062;28;20570;-48
2023/07/27 01:49:34;;;;;;;7.65;4.30;;;12.80;99.90;;;;;;5071781;28;20145;-47
2023/07/27 01:52:01;;;;;;;8.27;4.15;;;12.80;99.90;;;;;;5089800;28;20028;-46
2023/07/27 01:54:27;;;;;;;6.38;4.50;;;12.90;99.90;;;;;;5090147;28;20028;-47
2023/07/27 01:56:55;;;;;;;6.97;4.57;;;12.80;99.90;;;;;;5090443;28;20024;-47
2023/07/27 01:59:22;;;;;;;6.10;4.50;;;12.80;99.90;;;;;;5090586;28;20024;-47
2023/07/27 02:01:49;;;;;;;8.02;4.63;;;12.90;99.90;;;;;;5090356;28;20111;-46
2023/07/27 02:04:15;;;;;;;9.20;5.07;;;12.90;99.90;;;;;;5089798;28;20046;-46
2023/07/27 02:06:40;;;;;;;7.25;4.55;;;12.90;99.90;;;;;;5089896;28;20036;-47
2023/07/27 02:09:06;;;;;;;6.30;4.47;;;12.90;99.90;;;;;;5089011;28;20024;-45
2023/07/27 02:11:33;;;;;;;6.53;4.38;;;12.90;99.90;;;;;;5071688;28;20032;-47
2023/07/27 02:14:10;;;;;;;7.85;5.00;;;13.00;99.90;;;;;;5071395;28;20380;-47
2023/07/27 02:16:45;;;;;;;8.82;4.68;;;13.00;99.90;;;;;;5089767;28;20485;-49
2023/07/27 02:19:15;;;;;;;9.43;4.85;;;13.00;99.90;;;;;;5089587;28;20099;-46
2023/07/27 02:21:42;;;;;;;7.25;4.78;;;13.00;99.90;;;;;;5089829;28;20016;-46
2023/07/27 02:24:08;;;;;;;8.23;4.90;;;13.00;99.90;;;;;;5070880;28;20031;-46
2023/07/27 02:26:35;;;;;;;8.02;4.63;;;13.00;99.90;;;;;;5089576;28;20482;-45
2023/07/27 02:29:00;;;;;;;7.68;5.00;;;13.00;99.90;;;;;;5089793;28;20020;-47
2023/07/27 02:31:26;;;;;;;7.75;4.82;;;13.00;99.90;;;;;;5089555;28;20039;-46
2023/07/27 02:33:51;;;;;;;7.95;5.28;;;13.00;99.90;;;;;;5088900;28;20024;-47
2023/07/27 02:36:17;;;;;;;7.20;5.10;;;13.00;99.90;;;;;;5089628;28;20385;-46
2023/07/27 02:38:42;;;;;;;8.23;5.00;;;12.90;99.90;;;;;;5089193;28;20465;-46
2023/07/27 02:41:11;;;;;;;7.72;5.18;;;12.90;99.90;;;;;;5089323;28;20024;-47
2023/07/27 02:43:37;;;;;;;10.30;5.05;;;12.90;99.90;;;;;;5088867;28;20103;-46
2023/07/27 02:46:04;;;;;;;7.18;4.85;;;13.00;99.90;;;;;;5089733;28;20482;-46
2023/07/27 02:48:30;;;;;;;9.77;5.72;;;13.00;99.90;;;;;;5089357;28;20032;-48
2023/07/27 02:50:55;;;;;;;7.45;4.90;;;13.00;99.90;;;;;;5089307;28;20392;-48
2023/07/27 02:53:21;;;;;;;7.40;5.22;;;13.00;99.90;;;;;;5088733;28;20064;-47
2023/07/27 02:55:56;;;;;;;8.40;5.35;;;13.10;99.90;;;;;;5088995;28;20077;-47
2023/07/27 02:58:22;;;;;;;7.20;5.38;;;13.10;99.90;;;;;;5089375;28;20047;-47
2023/07/27 03:00:55;;;;;;;6.65;5.28;;;13.10;99.90;;;;;;5070860;28;20278;-50
2023/07/27 03:03:21;;;;;;;6.43;4.82;;;13.10;99.90;;;;;;5088835;28;20480;-50
2023/07/27 03:05:46;;;;;;;7.00;4.60;;;13.20;99.90;;;;;;5089192;28;20043;-46
2023/07/27 03:08:12;;;;;;;8.70;5.15;;;13.20;99.90;;;;;;5071095;28;20031;-46
2023/07/27 03:10:39;;;;;;;8.85;5.28;;;13.30;99.90;;;;;;5088786;28;20547;-46
2023/07/27 03:13:05;;;;;;;10.20;5.50;;;13.30;99.90;;;;;;5088493;28;20141;-46
2023/07/27 03:15:30;;;;;;;6.28;4.78;;;13.40;99.90;;;;;;5088828;28;20016;-47
2023/07/27 03:17:56;;;;;;;12.18;5.25;;;13.40;99.90;;;;;;5089030;28;20481;-47
2023/07/27 03:20:21;;;;;;;10.02;5.40;;;13.40;99.90;;;;;;5089766;28;20569;-46
2023/07/27 03:22:48;;;;;;;5.43;4.72;;;13.50;99.90;;;;;;5092752;28;20279;-47
2023/07/27 03:25:13;;;;;;;9.50;5.38;;;13.50;99.90;;;;;;5092597;28;20050;-47
2023/07/27 03:27:39;;;;;;;7.05;5.40;;;13.60;99.90;;;;;;5092914;28;20028;-46
2023/07/27 03:30:05;;;;;;;8.38;4.80;;;13.60;99.90;;;;;;5093052;28;20511;-50
2023/07/27 03:32:30;;;;;;;8.73;4.57;;;13.60;99.90;;;;;;5092585;28;20392;-48
2023/07/27 03:34:56;;;;;;;7.55;4.50;;;13.60;99.90;;;;;;5092465;28;20016;-49
2023/07/27 03:37:21;;;;;;;6.70;5.05;;;13.70;99.90;;;;;;5074716;28;20024;-47
2023/07/27 03:39:47;;;;;;;8.93;4.97;;;13.70;99.90;;;;;;5092641;28;20024;-46
2023/07/27 03:42:12;;;;;;;6.53;5.35;;;13.70;99.90;;;;;;5092701;28;20020;-46
2023/07/27 03:44:38;;;;;;;8.85;5.38;;;13.80;99.90;;;;;;5092668;28;20016;-48
2023/07/27 03:47:04;;;;;;;7.28;4.97;;;13.80;99.90;;;;;;5093020;28;20469;-47
2023/07/27 03:49:30;;;;;;;7.93;5.30;;;13.80;99.90;;;;;;5092410;28;20082;-45
2023/07/27 03:51:56;;;;;;;11.85;5.40;;;13.90;99.90;;;;;;5092246;28;20051;-47
2023/07/27 03:54:21;;;;;;;8.05;5.30;;;13.90;99.90;;;;;;5073966;28;20062;-45
2023/07/27 03:56:47;;;;;;;9.70;5.15;;;13.90;99.90;;;;;;5092682;28;20036;-46
2023/07/27 03:59:12;;;;;;;7.22;5.45;;;14.00;99.90;;;;;;5074111;28;20020;-46
2023/07/27 04:01:38;;;;;;;8.27;5.72;;;14.00;99.90;;;;;;5092406;28;20540;-47
2023/07/27 04:04:04;;;;;;;10.65;5.40;;;14.00;99.90;;;;;;5091980;28;20020;-47
2023/07/27 04:06:29;;;;;;;7.32;4.50;;;14.00;99.90;;;;;;5092595;28;20024;-48
2023/07/27 04:08:54;;;;;;;9.85;5.05;;;14.10;99.90;;;;;;5092303;28;20024;-47
2023/07/27 04:11:20;;;;;;;8.05;5.45;;;14.10;99.90;;;;;;5092256;28;20031;-46
2023/07/27 04:13:45;;;;;;;6.80;4.38;;;14.20;99.90;;;;;;5073397;28;20024;-46
2023/07/27 04:16:11;;;;;;;11.18;5.22;;;14.20;99.90;;;;;;5073994;28;20028;-49
2023/07/27 04:18:36;;;;;;;7.38;5.20;;;14.20;99.90;;;;;;5091874;28;20403;-48
2023/07/27 04:21:02;;;;;;;6.82;4.50;;;14.20;99.90;;;;;;5092184;28;20473;-48
2023/07/27 04:23:27;;;;;;;6.32;4.95;;;14.30;99.90;;;;;;5091091;28;20059;-48
2023/07/27 04:25:53;;;;;;;8.45;5.18;;;14.30;99.90;;;;;;5073440;28;20107;-48
2023/07/27 04:28:18;;;;;;;9.50;5.13;;;14.30;99.90;;;;;;5091490;28;20349;-47
2023/07/27 04:30:44;;;;;;;7.70;4.70;;;14.30;99.90;;;;;;5092095;28;20461;-46
2023/07/27 04:33:10;;;;;;;10.80;5.20;;;14.40;99.90;;;;;;5090192;28;20062;-47
2023/07/27 04:35:35;;;;;;;6.05;4.72;;;14.40;99.90;;;;;;5091884;28;20097;-47
2023/07/27 04:38:01;;;;;;;8.38;5.15;;;14.40;99.90;;;;;;5072997;28;20385;-49
2023/07/27 04:40:26;;;;;;;8.43;4.85;;;14.40;99.90;;;;;;5095424;28;20035;-47
2023/07/27 04:42:52;;;;;;;8.07;5.13;;;14.40;99.90;;;;;;5097894;28;20024;-50
2023/07/27 04:45:17;;;;;;;8.15;5.30;;;14.40;99.90;;;;;;5105400;28;20084;-50
2023/07/27 04:47:43;;;;;;;8.23;5.13;;;14.40;99.90;;;;;;5101428;28;20470;-50
2023/07/27 04:50:09;;;;;;;10.25;5.13;;;14.50;99.90;;;;;;5091193;28;20742;-46
2023/07/27 04:52:35;;;;;;;8.15;5.20;;;14.50;99.90;;;;;;5090196;28;20049;-48
2023/07/27 04:55:01;;;;;;;8.48;5.13;;;14.50;99.90;;;;;;5090291;28;20035;-49
2023/07/27 04:57:26;;;;;;;8.63;4.80;;;14.50;99.90;;;;;;5091309;28;20021;-47
2023/07/27 04:59:51;;;;;;;7.63;5.55;;;14.50;99.90;;;;;;5091159;28;20036;-49
2023/07/27 05:02:17;;;;;;;6.85;4.75;;;14.60;99.90;;;;;;5091207;28;20074;-47
2023/07/27 05:04:42;;;;;;;6.15;4.32;;;14.60;99.90;;;;;;5091003;28;20020;-49
2023/07/27 05:07:08;;;;;;;7.35;5.03;;;14.70;99.90;;;;;;5097665;28;20020;-48
2023/07/27 05:09:33;;;;;;;6.55;5.22;;;14.70;99.90;;;;;;5091443;28;20350;-49
2023/07/27 05:11:59;;;;;;;6.22;4.35;;;14.70;99.90;;;;;;5090759;28;20095;-47
2023/07/27 05:14:24;;;;;;;7.90;5.18;;;14.80;99.90;;;;;;5072582;28;20024;-47
2023/07/27 05:16:50;;;;;;;11.48;4.97;;;14.80;99.90;;;;;;5090833;28;20024;-48
2023/07/27 05:19:16;;;;;;;9.65;4.93;;;14.80;99.90;;;;;;5091001;28;20024;-49
2023/07/27 05:21:42;;;;;;;7.15;4.82;;;14.90;99.90;;;;;;5094493;28;20020;-48
2023/07/27 05:24:07;;;;;;;11.27;4.65;;;14.90;99.90;;;;;;5090348;28;20024;-50
2023/07/27 05:26:33;;;;;;;8.68;4.65;;;14.90;99.90;;;;;;5090436;28;20020;-47
2023/07/27 05:28:58;;;;;;;7.10;4.60;;;15.00;99.90;;;;;;5091067;28;20115;-46
2023/07/27 05:31:24;;;;;;;7.25;5.07;;;15.00;99.90;;;;;;5072287;28;20173;-47
2023/07/27 05:33:49;;;;;;;8.30;5.00;;;15.10;99.90;;;;;;5090136;28;20032;-47
2023/07/27 05:36:15;;;;;;;6.53;4.55;;;15.20;99.90;;;;;;5090511;28;20039;-47
2023/07/27 05:38:41;;;;;;;6.18;4.57;;;15.20;99.90;;;;;;5090312;28;20484;-49
2023/07/27 05:41:07;;;;;;;7.00;4.38;;;15.30;99.90;;;;;;5090470;28;20099;-49
2023/07/27 05:43:32;;;;;;;6.82;4.47;;;15.30;99.90;;;;;;5089869;28;20095;-48
2023/07/27 05:45:58;;;;;;;6.28;4.32;;;15.40;99.90;;;;;;5090609;28;20024;-48
2023/07/27 05:48:23;;;;;;;7.20;4.25;;;15.40;99.90;;;;;;5090583;28;20024;-48
2023/07/27 05:50:51;;;;;;;8.63;4.35;;;15.50;99.90;;;;;;5090092;28;20504;-47
2023/07/27 05:53:17;;;;;;;6.47;4.47;;;15.50;99.90;;;;;;5071390;28;20039;-51
2023/07/27 05:55:42;;;;;;;8.35;4.63;;;15.50;99.90;;;;;;5089855;28;20028;-47
2023/07/27 05:58:08;;;;;;;7.03;4.15;;;15.60;99.90;;;;;;5090261;28;20024;-45
2023/07/27 06:00:35;;;;;;;6.13;4.07;;;15.60;99.90;;;;;;5090078;28;20040;-46
2023/07/27 06:03:01;;;;;;;8.27;4.30;;;15.60;99.90;;;;;;5089992;28;20376;-46
2023/07/27 06:05:27;;;;;;;5.78;4.10;;;15.60;99.90;;;;;;5089944;28;20020;-48
2023/07/27 06:07:52;;;;;;;8.43;3.85;;;15.60;99.90;;;;;;5089720;28;20484;-45
2023/07/27 06:10:18;;;;;;;5.72;3.58;;;15.60;99.90;;;;;;5071631;28;20040;-49
2023/07/27 06:12:43;;;;;;;5.60;4.72;;;15.60;99.90;;;;;;5089752;28;20056;-47
2023/07/27 06:15:09;;;;;;;7.55;4.20;;;15.70;99.90;;;;;;5089801;28;20516;-47
2023/07/27 06:17:35;;;;;;;6.50;4.07;;;15.70;99.90;;;;;;5089900;28;20074;-45
2023/07/27 06:20:00;;;;;;;6.15;3.78;;;15.70;99.90;;;;;;5071490;28;20485;-47
2023/07/27 06:22:26;;;;;;;7.18;4.25;;;15.70;99.90;;;;;;5089790;28;20190;-47
2023/07/27 06:24:51;;;;;;;7.55;3.97;;;15.70;99.90;;;;;;5089375;28;20032;-46
2023/07/27 06:27:17;;;;;;;6.40;4.25;;;15.80;99.90;;;;;;5089810;28;20081;-47
2023/07/27 06:29:43;;;;;;;5.28;3.85;;;15.80;99.90;;;;;;5089977;28;20034;-46
2023/07/27 06:32:08;;;;;;;7.07;4.35;;;15.90;99.90;;;;;;5089952;28;20020;-45
2023/07/27 06:34:34;;;;;;;6.28;3.63;;;16.00;99.90;;;;;;5071337;28;20028;-46
2023/07/27 06:36:59;;;;;;;6.65;3.83;;;16.00;99.90;;;;;;5089462;28;20020;-47
2023/07/27 06:39:25;;;;;;;8.43;3.85;;;16.10;99.90;;;;;;5089542;28;20024;-47
2023/07/27 06:41:51;;;;;;;9.05;4.47;;;16.10;99.90;;;;;;5089416;28;20024;-47
2023/07/27 06:44:17;;;;;;;7.97;3.70;;;16.20;99.90;;;;;;5089004;28;20035;-46
2023/07/27 06:46:42;;;;;;;5.75;3.47;;;16.20;99.90;;;;;;5090443;28;20102;-47
2023/07/27 06:49:10;;;;;;;3.47;3.03;;;16.20;99.90;;;;;;5088670;28;20480;-45
2023/07/27 06:51:35;;;;;;;4.63;3.42;;;16.30;99.90;;;;;;5089376;28;20039;-49
2023/07/27 06:54:01;;;;;;;5.68;3.60;;;16.30;99.90;;;;;;5070696;28;20511;-48
2023/07/27 06:56:26;;;;;;;4.28;3.35;;;16.30;99.90;;;;;;5089116;28;20035;-47
2023/07/27 06:58:52;;;;;;;4.28;3.75;;;16.30;99.90;;;;;;5089355;28;20438;-47
2023/07/27 07:01:17;;;;;;;7.15;3.40;;;16.30;99.90;;;;;;5089123;28;20024;-48
2023/07/27 07:03:43;;;;;;;6.75;3.70;;;16.20;99.90;;;;;;5088738;28;20042;-47
2023/07/27 07:06:09;;;;;;;5.28;3.22;;;16.30;99.90;;;;;;5089306;28;20036;-47
2023/07/27 07:08:34;;;;;;;4.63;3.28;;;16.30;99.90;;;;;;5088754;28;20111;-46
2023/07/27 07:11:00;;;;;;;6.00;3.10;;;16.40;99.90;;;;;;5088783;28;20137;-48
2023/07/27 07:13:26;;;;;;;5.82;3.33;;;16.40;99.90;;;;;;5088395;28;20029;-45
2023/07/27 07:15:51;;;;;;;5.75;3.35;;;16.40;99.90;;;;;;5070558;28;20012;-48
2023/07/27 07:18:17;;;;;;;6.57;3.25;;;16.50;99.90;;;;;;5088851;28;20016;-46
2023/07/27 07:20:42;;;;;;;7.57;3.80;;;16.60;99.90;;;;;;5089017;28;20155;-47
2023/07/27 07:23:08;;;;;;;9.20;3.25;;;16.70;99.90;;;;;;5088736;28;20020;-45
2023/07/27 07:25:33;;;;;;;5.82;3.75;;;16.80;99.90;;;;;;5088881;28;20099;-46
2023/07/27 07:27:59;;;;;;;4.88;3.35;;;16.80;99.90;;;;;;5088816;28;20028;-51
2023/07/27 07:30:25;;;;;;;4.53;3.20;;;17.00;99.90;;;;;;5088684;28;20107;-48
2023/07/27 07:32:50;;;;;;;6.55;4.22;;;17.00;99.90;;;;;;5088531;28;20055;-47
2023/07/27 07:35:17;;;;;;;4.93;3.00;;;17.10;99.90;;;;;;5088743;28;20472;-46
2023/07/27 07:37:44;;;;;;;4.95;2.80;;;17.10;99.90;;;;;;5088877;28;20024;-48
2023/07/27 07:40:09;;;;;;;5.30;3.20;;;17.10;99.90;;;;;;5070519;28;20417;-46
2023/07/27 07:42:35;;;;;;;6.03;3.53;;;17.20;99.90;;;;;;5088348;28;20032;-49
2023/07/27 07:45:00;;;;;;;4.55;3.45;;;17.20;99.90;;;;;;5088127;28;20024;-47
2023/07/27 07:47:26;;;;;;;6.75;3.92;;;17.20;99.90;;;;;;5088388;28;20020;-49
2023/07/27 07:49:51;;;;;;;8.65;3.45;;;17.20;99.90;;;;;;5087503;28;20024;-49
2023/07/27 07:52:17;;;;;;;7.60;3.90;;;17.20;99.90;;;;;;5087310;28;20089;-47
2023/07/27 07:54:43;;;;;;;4.85;3.38;;;17.30;99.90;;;;;;5069286;28;20027;-48
2023/07/27 07:57:08;;;;;;;4.10;3.47;;;17.30;99.90;;;;;;5088031;28;20158;-55
2023/07/27 07:59:34;;;;;;;4.97;3.42;;;17.30;99.90;;;;;;5087398;28;20020;-48
2023/07/27 08:01:59;;;;;;;7.47;3.33;;;17.40;99.90;;;;;;5093903;28;20150;-47
2023/07/27 08:04:24;;;;;;;5.00;3.67;;;17.40;99.90;;;;;;5091525;28;20472;-47
2023/07/27 08:06:50;;;;;;;6.82;3.35;;;17.30;99.90;;;;;;5089883;28;20039;-46
2023/07/27 08:09:16;;;;;;;4.72;3.50;;;17.30;99.90;;;;;;5093433;28;20024;-44
2023/07/27 08:11:41;;;;;;;6.63;3.60;;;17.30;99.90;;;;;;5105376;28;20028;-47
2023/07/27 08:14:08;;;;;;;9.75;3.28;;;17.40;99.90;;;;;;5094036;28;20119;-46
2023/07/27 08:16:34;;;;;;;6.05;3.20;;;17.40;99.90;;;;;;5092633;28;20150;-50
2023/07/27 08:19:00;;;;;;;7.75;3.38;;;17.40;99.90;;;;;;5092020;28;20099;-49
2023/07/27 08:21:28;;;;;;;7.35;3.42;;;17.40;99.90;;;;;;5092510;28;20027;-49
2023/07/27 08:23:54;;;;;;;7.53;3.10;;;17.30;99.90;;;;;;5091547;28;20129;-48
2023/07/27 08:26:19;;;;;;;4.15;3.30;;;17.40;99.90;;;;;;5092171;28;20401;-47
2023/07/27 08:28:46;;;;;;;6.22;4.03;;;17.40;99.90;;;;;;5092318;28;20024;-47
2023/07/27 08:31:11;;;;;;;6.10;3.22;;;17.40;99.90;;;;;;5091030;28;20042;-49
2023/07/27 08:33:37;;;;;;;3.33;3.00;;;17.40;99.90;;;;;;5090550;28;20032;-47
2023/07/27 08:36:03;;;;;;;4.20;3.15;;;17.40;99.90;;;;;;5090661;28;20031;-48
2023/07/27 08:38:29;;;;;;;3.90;3.22;;;17.40;99.90;;;;;;5090372;28;20048;-48
2023/07/27 08:41:00;;;;;;;4.95;3.20;;;17.50;99.90;;;;;;5090667;28;20440;-49
2023/07/27 08:43:26;;;;;;;6.38;3.05;;;17.50;99.90;;;;;;5087792;28;20047;-47
2023/07/27 08:45:52;;;;;;;7.85;3.78;;;17.50;99.90;;;;;;5072265;28;20081;-47
2023/07/27 08:48:18;;;;;;;7.47;3.97;;;17.60;99.90;;;;;;5091374;28;20036;-48
2023/07/27 08:50:46;;;;;;;4.57;3.75;;;17.60;99.90;;;;;;5091242;28;20028;-46
2023/07/27 08:53:12;;;;;;;9.20;3.78;;;17.70;99.90;;;;;;5089526;28;20098;-46
2023/07/27 08:55:39;;;;;;;6.47;3.70;;;17.60;99.90;;;;;;5090990;28;20024;-46
2023/07/27 08:58:05;;;;;;;5.55;3.90;;;17.50;99.90;;;;;;5091252;28;20024;-47
2023/07/27 09:00:31;;;;;;;7.85;3.60;;;17.40;99.90;;;;;;5091186;28;20477;-45
2023/07/27 09:02:58;;;;;;;9.35;3.78;;;17.40;99.90;;;;;;5089842;28;20028;-46
2023/07/27 09:05:37;;;;;;;5.68;3.33;;;17.30;99.90;;;;;;5089263;28;20035;-47
2023/07/27 09:08:10;;;;;;;4.95;3.20;;;17.20;99.90;;;;;;5089464;28;20259;-49
2023/07/27 09:10:37;;;;;;;9.38;3.63;;;17.10;99.90;;;;;;5089670;28;20032;-46
2023/07/27 09:13:03;;;;;;;7.50;3.42;;;16.90;99.90;;;;;;5089355;28;20489;-45
2023/07/27 09:15:29;;;;;;;4.60;3.40;;;16.90;99.90;;;;;;5089895;28;20020;-46
2023/07/27 09:17:58;;;;;;;5.60;3.78;;;16.90;99.90;;;;;;5089984;28;20047;-49
2023/07/27 09:20:25;;;;;;;6.50;3.75;;;17.00;99.90;;;;;;5090959;28;20016;-48
2023/07/27 09:22:50;;;;;;;7.13;3.83;;;17.10;99.90;;;;;;5090665;28;20381;-47
2023/07/27 09:25:23;;;;;;;6.35;3.40;;;17.20;99.90;;;;;;5090706;28;20020;-48
2023/07/27 09:27:55;;;;;;;10.30;3.72;;;17.20;99.90;;;;;;5091238;28;20465;-46
2023/07/27 09:30:23;;;;;;;4.53;3.00;;;17.20;99.90;;;;;;5090804;28;20028;-47
2023/07/27 09:32:50;;;;;;;4.30;3.33;;;17.20;99.90;;;;;;5090653;28;20102;-46
2023/07/27 09:35:17;;;;;;;4.63;3.25;;;17.20;99.90;;;;;;5090403;28;20024;-47
2023/07/27 09:37:44;;;;;;;5.65;3.80;;;17.30;99.90;;;;;;5090470;28;20020;-46
2023/07/27 09:40:24;;;;;;;5.20;3.97;;;17.40;99.90;;;;;;5072313;28;20012;-46
2023/07/27 09:42:51;;;;;;;8.10;3.65;;;17.60;99.90;;;;;;5090446;28;20027;-46
2023/07/27 09:45:16;;;;;;;6.35;3.95;;;17.70;99.90;;;;;;5072331;28;20030;-46
2023/07/27 09:47:42;;;;;;;5.43;4.30;;;17.70;99.90;;;;;;5072366;28;20016;-50
2023/07/27 09:50:09;;;;;;;5.05;4.05;;;17.70;99.90;;;;;;5090715;28;20464;-46
2023/07/27 09:52:36;;;;;;;4.95;3.45;;;17.90;99.90;;;;;;5090391;28;20025;-46
2023/07/27 09:55:02;;;;;;;5.93;3.83;;;18.00;99.90;;;;;;5089985;28;20020;-46
2023/07/27 09:57:29;;;;;;;6.05;3.50;;;17.80;99.90;;;;;;5090577;28;20315;-47
2023/07/27 09:59:54;;;;;;;4.40;3.17;;;17.70;99.90;;;;;;5072139;28;20016;-46
2023/07/27 10:02:21;;;;;;;5.38;3.25;;;17.80;99.90;;;;;;5071778;28;20061;-47
2023/07/27 10:04:51;;;;;;;5.40;3.72;;;17.80;99.90;;;;;;5071685;28;20358;-47
2023/07/27 10:07:19;;;;;;;6.53;3.65;;;17.80;99.90;;;;;;5072225;28;20031;-47
2023/07/27 10:09:45;;;;;;;6.03;3.60;;;17.70;99.90;;;;;;5090110;28;20091;-47
2023/07/27 10:12:11;;;;;;;4.90;3.60;;;17.60;99.90;;;;;;5089825;28;20600;-49
2023/07/27 10:14:39;;;;;;;5.10;3.78;;;17.50;99.90;;;;;;5089756;28;20503;-47
2023/07/27 10:17:09;;;;;;;5.38;3.75;;;17.40;99.90;;;;;;5090222;28;20016;-48
2023/07/27 10:19:42;;;;;;;5.60;3.75;;;17.50;99.90;;;;;;5090011;28;20488;-50
2023/07/27 10:22:11;;;;;;;7.95;3.40;;;17.50;99.90;;;;;;5071518;28;20035;-49
2023/07/27 10:24:54;;;;;;;5.45;3.30;;;17.50;99.90;;;;;;5089421;28;20020;-47
2023/07/27 10:27:20;;;;;;;7.80;3.53;;;17.50;99.90;;;;;;5089948;28;20364;-50
2023/07/27 10:30:10;;;;;;;6.78;3.20;;;17.50;99.90;;;;;;5088927;28;20477;-48
2023/07/27 10:32:36;;;;;;;4.55;3.33;;;17.70;99.90;;;;;;5089584;28;20067;-50
2023/07/27 10:35:07;;;;;;;4.68;3.08;;;17.80;99.90;;;;;;5089352;28;20088;-46
2023/07/27 10:37:52;;;;;;;;;;;18.00;99.90;;;;;;5090062;28;20129;-47
2023/07/27 10:40:25;;;;;;;7.55;3.33;;;18.10;99.90;;;;;;5089618;28;19904;-47
2023/07/27 10:42:58;;;;;;;6.63;3.70;;;18.20;99.90;;;;;;5089407;28;20527;-46
2023/07/27 10:45:25;;;;;;;3.75;2.75;;;18.30;99.90;;;;;;5071035;28;20052;-46
2023/07/27 10:47:55;;;;;;;5.90;3.80;;;18.40;99.90;;;;;;5089632;28;20473;-47
2023/07/27 10:50:20;;;;;;;3.60;3.00;;;18.30;99.90;;;;;;5070924;28;20435;-46
2023/07/27 10:52:51;;;;;;;4.22;3.28;;;18.40;99.90;;;;;;5088962;28;20290;-49
2023/07/27 10:55:17;;;;;;;3.65;2.88;;;18.40;99.90;;;;;;5071077;28;20016;-47
2023/07/27 10:57:42;;;;;;;7.07;3.15;;;18.30;99.90;;;;;;5071342;28;20053;-47
2023/07/27 11:00:09;;;;;;;4.88;3.17;;;18.30;99.90;;;;;;5089250;28;20631;-47
2023/07/27 11:02:36;;;;;;;5.80;3.83;;;18.40;99.90;;;;;;5089168;28;20035;-49
2023/07/27 11:05:06;;;;;;;5.65;3.15;;;18.30;99.90;;;;;;5088563;28;20073;-49
2023/07/27 11:07:37;;;;;;;4.30;3.30;;;18.30;99.90;;;;;;5090564;28;20030;-50
2023/07/27 11:10:08;;;;;;;;;;;18.20;99.90;;;;;;5077294;28;20034;-48
2023/07/27 11:12:50;;;;;;;3.78;3.05;;;18.10;99.90;;;;;;5076546;28;19903;-47
2023/07/27 11:15:23;;;;;;;5.50;3.78;;;17.70;99.90;;;;;;5096829;28;20454;-50
2023/07/27 11:17:50;;;;;;;4.63;3.53;;;17.30;99.90;;;;;;5096923;28;20329;-47
2023/07/27 11:20:24;;;;;;;7.47;4.38;;;17.00;99.90;;;;;;5079555;28;20058;-48
2023/07/27 11:22:52;;;;;;;6.63;4.25;;;16.80;99.90;;;;;;5096236;28;20385;-46
2023/07/27 11:25:18;;;;;;;6.88;4.82;;;16.80;99.90;;;;;;5097574;28;20095;-48
2023/07/27 11:27:48;;;;;;;8.40;4.95;;;16.60;99.90;;;;;;5096892;28;20019;-48
2023/07/27 11:30:17;;;;;;;4.82;4.22;;;16.60;99.90;;;;;;5096373;28;20065;-47
2023/07/27 11:32:53;;;;;;;7.40;5.57;;;16.70;99.90;;;;;;5096614;28;20481;-49
2023/07/27 11:35:19;;;;;;;7.35;5.30;;;16.70;99.90;;;;;;5096348;28;20030;-47
2023/07/27 11:37:45;;;;;;;9.27;5.78;;;16.60;99.90;;;;;;5096723;28;20028;-48
2023/07/27 11:40:18;;;;;;;10.48;5.82;;;16.60;99.90;;;;;;5095465;28;20012;-49
2023/07/27 11:42:43;;;;;;;6.22;4.78;;;16.60;99.90;;;;;;5100243;28;20199;-48
2023/07/27 11:45:10;;;;;;;7.45;5.22;;;16.60;99.90;;;;;;5101629;28;20074;-49
2023/07/27 11:47:38;;;;;;;5.95;5.30;;;16.60;99.90;;;;;;5101917;28;20027;-47
2023/07/27 11:50:06;;;;;;;11.32;5.95;;;16.50;99.90;;;;;;5100827;28;20015;-47
2023/07/27 11:52:33;;;;;;;7.85;5.38;;;16.50;99.90;;;;;;5098316;28;20073;-51
2023/07/27 11:55:01;;;;;;;6.53;4.93;;;16.50;99.90;;;;;;5100787;28;20023;-46
2023/07/27 11:57:27;;;;;;;8.68;5.55;;;16.60;99.90;;;;;;5102657;28;20020;-49
2023/07/27 12:00:12;;;;;;;8.82;5.65;;;16.60;99.90;;;;;;5082557;28;20332;-48
2023/07/27 12:02:38;;;;;;;7.18;5.72;;;16.60;99.90;;;;;;5099092;28;20053;-48
2023/07/27 12:05:03;;;;;;;8.75;5.90;;;16.70;99.90;;;;;;5080264;28;20082;-48
2023/07/27 12:07:35;;;;;;;8.55;6.07;;;16.60;99.90;;;;;;5099350;28;20057;-48
2023/07/27 12:10:01;;;;;;;8.63;6.68;;;16.50;99.90;;;;;;5094994;28;20027;-51
2023/07/27 12:12:27;;;;;;;8.95;6.38;;;16.50;99.90;;;;;;5094291;28;20385;-48
2023/07/27 12:14:54;;;;;;;8.38;5.63;;;16.50;99.90;;;;;;5091745;28;20012;-48
2023/07/27 12:17:26;;;;;;;10.48;6.95;;;16.60;99.90;;;;;;5073704;28;20165;-52
2023/07/27 12:19:52;;;;;;;13.88;6.88;;;16.60;99.90;;;;;;5092303;28;20016;-50
2023/07/27 12:22:18;;;;;;;11.68;6.50;;;16.70;99.90;;;;;;5091974;28;20035;-51
2023/07/27 12:24:47;;;;;;;9.27;6.13;;;16.70;99.90;;;;;;5091681;28;20023;-51
2023/07/27 12:27:12;;;;;;;8.23;6.40;;;16.80;99.90;;;;;;5073626;28;20066;-50
2023/07/27 12:29:38;;;;;;;8.02;6.25;;;16.80;99.90;;;;;;5092020;28;20109;-49
2023/07/27 12:32:04;;;;;;;7.82;5.32;;;16.90;99.90;;;;;;5091676;28;20024;-48
2023/07/27 12:34:34;;;;;;;10.48;5.40;;;17.00;99.90;;;;;;5091452;28;20032;-48
2023/07/27 12:36:59;;;;;;;7.75;5.88;;;17.00;99.90;;;;;;5091768;28;20091;-50
2023/07/27 12:39:25;;;;;;;11.63;6.90;;;16.90;99.90;;;;;;5091947;28;20118;-52
2023/07/27 12:41:50;;;;;;;9.23;6.53;;;16.80;99.90;;;;;;5073431;28;20020;-50
2023/07/27 12:44:16;;;;;;;11.73;6.50;;;16.60;99.90;;;;;;5072490;28;20119;-51